sensor_id;sensor_type;location;lat;lon;timestamp;temperature;humidity
10155;DHT22;5118;48.570;7.916;2024-02-28T00:00:08;6.80;99.90
10155;DHT22;5118;48.570;7.916;2024-02-28T00:02:37;6.80;99.90
10155;DHT22;5118;48.570;7.916;2024-02-28T00:05:06;6.70;99.90
10155;DHT22;5118;48.570;7.916;2024-02-28T00:07:35;6.60;99.90
10155;DHT22;5118;48.570;7.916;2024-02-28T00:10:06;6.60;99.90
10155;DHT22;5118;48.570;7.916;2024-02-28T00:12:34;6.60;99.90
10155;DHT22;5118;48.570;7.916;2024-02-28T00:15:04;6.60;99.90
10155;DHT22;5118;48.570;7.916;2024-02-28T00:17:32;6.60;99.90
10155;DHT22;5118;48.570;7.916;2024-02-28T00:20:02;6.60;99.90
10155;DHT22;5118;48.570;7.916;2024-02-28T00:22:30;6.60;99.90
10155;DHT22;5118;48.570;7.916;2024-02-28T00:24:59;6.70;99.90
10155;DHT22;5118;48.570;7.916;2024-02-28T00:27:29;6.60;99.90
10155;DHT22;5118;48.570;7.916;2024-02-28T00:29:58;6.60;99.90
10155;DHT22;5118;48.570;7.916;2024-02-28T00:32:26;6.50;99.90
10155;DHT22;5118;48.570;7.916;2024-02-28T00:34:54;6.50;99.90
10155;DHT22;5118;48.570;7.916;2024-02-28T00:37:23;6.40;99.90
10155;DHT22;5118;48.570;7.916;2024-02-28T00:39:52;6.40;99.90
10155;DHT22;5118;48.570;7.916;2024-02-28T00:42:21;6.40;99.90
10155;DHT22;5118;48.570;7.916;2024-02-28T00:44:51;6.30;99.90
10155;DHT22;5118;48.570;7.916;2024-02-28T00:47:19;6.30;99.90
10155;DHT22;5118;48.570;7.916;2024-02-28T00:49:48;6.30;99.90
10155;DHT22;5118;48.570;7.916;2024-02-28T00:52:16;6.30;99.90
10155;DHT22;5118;48.570;7.916;2024-02-28T00:54:44;6.30;99.90
10155;DHT22;5118;48.570;7.916;2024-02-28T00:57:13;6.40;99.90
10155;DHT22;5118;48.570;7.916;2024-02-28T00:59:42;6.40;99.90
10155;DHT22;5118;48.570;7.916;2024-02-28T01:02:13;6.50;99.90
10155;DHT22;5118;48.570;7.916;2024-02-28T01:04:41;6.60;99.90
10155;DHT22;5118;48.570;7.916;2024-02-28T01:07:10;6.60;99.90
10155;DHT22;5118;48.570;7.916;2024-02-28T01:09:38;6.60;99.90
10155;DHT22;5118;48.570;7.916;2024-02-28T01:12:07;6.70;99.90
10155;DHT22;5118;48.570;7.916;2024-02-28T01:14:36;6.70;99.90
10155;DHT22;5118;48.570;7.916;2024-02-28T01:17:04;6.80;99.90
10155;DHT22;5118;48.570;7.916;2024-02-28T01:19:34;6.70;99.90
10155;DHT22;5118;48.570;7.916;2024-02-28T01:22:02;6.70;99.90
10155;DHT22;5118;48.570;7.916;2024-02-28T01:24:31;6.70;99.90
10155;DHT22;5118;48.570;7.916;2024-02-28T01:27:00;6.60;99.90
10155;DHT22;5118;48.570;7.916;2024-02-28T01:29:29;6.60;99.90
10155;DHT22;5118;48.570;7.916;2024-02-28T01:31:58;6.60;99.90
10155;DHT22;5118;48.570;7.916;2024-02-28T01:34:26;6.60;99.90
10155;DHT22;5118;48.570;7.916;2024-02-28T01:36:56;6.60;99.90
10155;DHT22;5118;48.570;7.916;2024-02-28T01:39:24;6.70;99.90
10155;DHT22;5118;48.570;7.916;2024-02-28T01:41:53;6.70;99.90
10155;DHT22;5118;48.570;7.916;2024-02-28T01:44:22;6.80;99.90
10155;DHT22;5118;48.570;7.916;2024-02-28T01:46:51;6.90;99.90
10155;DHT22;5118;48.570;7.916;2024-02-28T01:49:22;7.00;99.90
10155;DHT22;5118;48.570;7.916;2024-02-28T01:51:53;7.00;99.90
10155;DHT22;5118;48.570;7.916;2024-02-28T01:54:26;7.10;99.90
10155;DHT22;5118;48.570;7.916;2024-02-28T01:56:58;7.10;99.90
10155;DHT22;5118;48.570;7.916;2024-02-28T01:59:31;7.10;99.90
10155;DHT22;5118;48.570;7.916;2024-02-28T02:02:00;7.20;99.90
10155;DHT22;5118;48.570;7.916;2024-02-28T02:04:28;7.20;99.90
10155;DHT22;5118;48.570;7.916;2024-02-28T02:06:57;7.20;99.90
10155;DHT22;5118;48.570;7.916;2024-02-28T02:09:28;7.20;99.90
10155;DHT22;5118;48.570;7.916;2024-02-28T02:11:57;7.20;99.90
10155;DHT22;5118;48.570;7.916;2024-02-28T02:14:26;7.20;99.90
10155;DHT22;5118;48.570;7.916;2024-02-28T02:16:54;7.20;99.90
10155;DHT22;5118;48.570;7.916;2024-02-28T02:19:22;7.30;99.90
10155;DHT22;5118;48.570;7.916;2024-02-28T02:21:52;7.30;99.90
10155;DHT22;5118;48.570;7.916;2024-02-28T02:24:23;7.30;99.90
10155;DHT22;5118;48.570;7.916;2024-02-28T02:26:55;7.30;99.90
10155;DHT22;5118;48.570;7.916;2024-02-28T02:29:23;7.30;99.90
10155;DHT22;5118;48.570;7.916;2024-02-28T02:31:52;7.30;99.90
10155;DHT22;5118;48.570;7.916;2024-02-28T02:34:20;7.30;99.90
10155;DHT22;5118;48.570;7.916;2024-02-28T02:36:49;7.30;99.90
10155;DHT22;5118;48.570;7.916;2024-02-28T02:39:18;7.30;99.90
10155;DHT22;5118;48.570;7.916;2024-02-28T02:41:47;7.30;99.90
10155;DHT22;5118;48.570;7.916;2024-02-28T02:44:16;7.20;99.90
10155;DHT22;5118;48.570;7.916;2024-02-28T02:46:44;7.10;99.90
10155;DHT22;5118;48.570;7.916;2024-02-28T02:49:13;7.10;99.90
10155;DHT22;5118;48.570;7.916;2024-02-28T02:51:41;7.00;99.90
10155;DHT22;5118;48.570;7.916;2024-02-28T02:54:10;6.80;99.90
10155;DHT22;5118;48.570;7.916;2024-02-28T02:56:41;6.70;99.90
10155;DHT22;5118;48.570;7.916;2024-02-28T02:59:11;6.50;99.90
10155;DHT22;5118;48.570;7.916;2024-02-28T03:01:40;6.30;99.90
10155;DHT22;5118;48.570;7.916;2024-02-28T03:04:08;6.20;99.90
10155;DHT22;5118;48.570;7.916;2024-02-28T03:06:37;6.00;99.90
10155;DHT22;5118;48.570;7.916;2024-02-28T03:09:05;5.90;99.90
10155;DHT22;5118;48.570;7.916;2024-02-28T03:11:35;5.80;99.90
10155;DHT22;5118;48.570;7.916;2024-02-28T03:14:03;5.70;99.90
10155;DHT22;5118;48.570;7.916;2024-02-28T03:16:33;5.60;99.90
10155;DHT22;5118;48.570;7.916;2024-02-28T03:19:04;5.50;99.90
10155;DHT22;5118;48.570;7.916;2024-02-28T03:21:33;5.40;99.90
10155;DHT22;5118;48.570;7.916;2024-02-28T03:24:01;5.40;99.90
10155;DHT22;5118;48.570;7.916;2024-02-28T03:26:30;5.30;99.90
10155;DHT22;5118;48.570;7.916;2024-02-28T03:28:59;5.30;99.90
10155;DHT22;5118;48.570;7.916;2024-02-28T03:31:27;5.20;99.90
10155;DHT22;5118;48.570;7.916;2024-02-28T03:33:57;5.20;99.90
10155;DHT22;5118;48.570;7.916;2024-02-28T03:36:28;5.20;99.90
10155;DHT22;5118;48.570;7.916;2024-02-28T03:38:56;5.20;99.90
10155;DHT22;5118;48.570;7.916;2024-02-28T03:41:25;5.20;99.90
10155;DHT22;5118;48.570;7.916;2024-02-28T03:43:53;5.20;99.90
10155;DHT22;5118;48.570;7.916;2024-02-28T03:46:21;5.20;99.90
10155;DHT22;5118;48.570;7.916;2024-02-28T03:48:50;5.20;99.90
10155;DHT22;5118;48.570;7.916;2024-02-28T03:51:20;5.20;99.90
10155;DHT22;5118;48.570;7.916;2024-02-28T03:53:48;5.10;99.90
10155;DHT22;5118;48.570;7.916;2024-02-28T03:56:22;5.10;99.90
10155;DHT22;5118;48.570;7.916;2024-02-28T03:58:52;5.00;99.90
10155;DHT22;5118;48.570;7.916;2024-02-28T04:01:21;4.90;99.90
10155;DHT22;5118;48.570;7.916;2024-02-28T04:03:50;4.90;99.90
10155;DHT22;5118;48.570;7.916;2024-02-28T04:06:20;4.90;99.90
10155;DHT22;5118;48.570;7.916;2024-02-28T04:08:48;4.80;99.90
10155;DHT22;5118;48.570;7.916;2024-02-28T04:11:16;4.80;99.90
10155;DHT22;5118;48.570;7.916;2024-02-28T04:13:45;4.80;99.90
10155;DHT22;5118;48.570;7.916;2024-02-28T04:16:13;4.70;99.90
10155;DHT22;5118;48.570;7.916;2024-02-28T04:18:41;4.60;99.90
10155;DHT22;5118;48.570;7.916;2024-02-28T04:21:10;4.50;99.90
10155;DHT22;5118;48.570;7.916;2024-02-28T04:23:40;4.50;99.90
10155;DHT22;5118;48.570;7.916;2024-02-28T04:26:09;4.40;99.90
10155;DHT22;5118;48.570;7.916;2024-02-28T04:28:37;4.30;99.90
10155;DHT22;5118;48.570;7.916;2024-02-28T04:31:06;4.30;99.90
10155;DHT22;5118;48.570;7.916;2024-02-28T04:33:35;4.20;99.90
10155;DHT22;5118;48.570;7.916;2024-02-28T04:36:04;4.20;99.90
10155;DHT22;5118;48.570;7.916;2024-02-28T04:38:33;4.10;99.90
10155;DHT22;5118;48.570;7.916;2024-02-28T04:41:03;4.10;99.90
10155;DHT22;5118;48.570;7.916;2024-02-28T04:43:31;4.10;99.90
10155;DHT22;5118;48.570;7.916;2024-02-28T04:46:00;4.10;99.90
10155;DHT22;5118;48.570;7.916;2024-02-28T04:48:30;4.00;99.90
10155;DHT22;5118;48.570;7.916;2024-02-28T04:51:00;4.00;99.90
10155;DHT22;5118;48.570;7.916;2024-02-28T04:53:28;4.00;99.90
10155;DHT22;5118;48.570;7.916;2024-02-28T04:55:57;4.00;99.90
10155;DHT22;5118;48.570;7.916;2024-02-28T04:58:26;4.00;99.90
10155;DHT22;5118;48.570;7.916;2024-02-28T05:00:54;4.00;99.90
10155;DHT22;5118;48.570;7.916;2024-02-28T05:03:23;3.90;99.90
10155;DHT22;5118;48.570;7.916;2024-02-28T05:05:52;3.90;99.90
10155;DHT22;5118;48.570;7.916;2024-02-28T05:08:20;3.90;99.90
10155;DHT22;5118;48.570;7.916;2024-02-28T05:10:49;3.90;99.90
10155;DHT22;5118;48.570;7.916;2024-02-28T05:13:19;3.90;99.90
10155;DHT22;5118;48.570;7.916;2024-02-28T05:15:50;3.90;99.90
10155;DHT22;5118;48.570;7.916;2024-02-28T05:18:19;3.90;99.90
10155;DHT22;5118;48.570;7.916;2024-02-28T05:20:47;3.90;99.90
10155;DHT22;5118;48.570;7.916;2024-02-28T05:23:16;3.90;99.90
10155;DHT22;5118;48.570;7.916;2024-02-28T05:25:45;3.90;99.90
10155;DHT22;5118;48.570;7.916;2024-02-28T05:28:14;3.80;99.90
10155;DHT22;5118;48.570;7.916;2024-02-28T05:30:43;3.80;99.90
10155;DHT22;5118;48.570;7.916;2024-02-28T05:33:17;3.80;99.90
10155;DHT22;5118;48.570;7.916;2024-02-28T05:35:45;3.80;99.90
10155;DHT22;5118;48.570;7.916;2024-02-28T05:38:14;3.70;99.90
10155;DHT22;5118;48.570;7.916;2024-02-28T05:40:42;3.70;99.90
10155;DHT22;5118;48.570;7.916;2024-02-28T05:43:11;3.70;99.90
10155;DHT22;5118;48.570;7.916;2024-02-28T05:45:40;3.60;99.90
10155;DHT22;5118;48.570;7.916;2024-02-28T05:48:09;3.60;99.90
10155;DHT22;5118;48.570;7.916;2024-02-28T05:50:39;3.60;99.90
10155;DHT22;5118;48.570;7.916;2024-02-28T05:53:07;3.60;99.90
10155;DHT22;5118;48.570;7.916;2024-02-28T05:55:36;3.50;99.90
10155;DHT22;5118;48.570;7.916;2024-02-28T05:58:04;3.50;99.90
10155;DHT22;5118;48.570;7.916;2024-02-28T06:00:34;3.50;99.90
10155;DHT22;5118;48.570;7.916;2024-02-28T06:03:04;3.40;99.90
10155;DHT22;5118;48.570;7.916;2024-02-28T06:05:33;3.40;99.90
10155;DHT22;5118;48.570;7.916;2024-02-28T06:08:06;3.30;99.90
10155;DHT22;5118;48.570;7.916;2024-02-28T06:10:34;3.30;99.90
10155;DHT22;5118;48.570;7.916;2024-02-28T06:13:03;3.40;99.90
10155;DHT22;5118;48.570;7.916;2024-02-28T06:15:31;3.50;99.90
10155;DHT22;5118;48.570;7.916;2024-02-28T06:18:00;3.60;99.90
10155;DHT22;5118;48.570;7.916;2024-02-28T06:20:28;3.60;99.90
10155;DHT22;5118;48.570;7.916;2024-02-28T06:22:57;3.70;99.90
10155;DHT22;5118;48.570;7.916;2024-02-28T06:25:35;3.70;99.90
10155;DHT22;5118;48.570;7.916;2024-02-28T06:28:04;3.70;99.90
10155;DHT22;5118;48.570;7.916;2024-02-28T06:30:33;3.70;99.90
10155;DHT22;5118;48.570;7.916;2024-02-28T06:33:02;3.70;99.90
10155;DHT22;5118;48.570;7.916;2024-02-28T06:35:31;3.80;99.90
10155;DHT22;5118;48.570;7.916;2024-02-28T06:38:00;3.90;99.90
10155;DHT22;5118;48.570;7.916;2024-02-28T06:40:28;3.90;99.90
10155;DHT22;5118;48.570;7.916;2024-02-28T06:43:01;3.90;99.90
10155;DHT22;5118;48.570;7.916;2024-02-28T06:45:30;3.90;99.90
10155;DHT22;5118;48.570;7.916;2024-02-28T06:47:58;3.80;99.90
10155;DHT22;5118;48.570;7.916;2024-02-28T06:50:27;3.80;99.90
10155;DHT22;5118;48.570;7.916;2024-02-28T06:52:55;3.70;99.90
10155;DHT22;5118;48.570;7.916;2024-02-28T06:55:24;3.70;99.90
10155;DHT22;5118;48.570;7.916;2024-02-28T06:57:52;3.70;99.90
10155;DHT22;5118;48.570;7.916;2024-02-28T07:00:22;3.70;99.90
10155;DHT22;5118;48.570;7.916;2024-02-28T07:02:52;3.70;99.90
10155;DHT22;5118;48.570;7.916;2024-02-28T07:05:20;3.80;99.90
10155;DHT22;5118;48.570;7.916;2024-02-28T07:07:48;3.80;99.90
10155;DHT22;5118;48.570;7.916;2024-02-28T07:10:17;3.90;99.90
10155;DHT22;5118;48.570;7.916;2024-02-28T07:12:46;4.00;99.90
10155;DHT22;5118;48.570;7.916;2024-02-28T07:15:14;4.20;99.90
10155;DHT22;5118;48.570;7.916;2024-02-28T07:17:47;4.40;99.90
10155;DHT22;5118;48.570;7.916;2024-02-28T07:20:16;4.50;99.90
10155;DHT22;5118;48.570;7.916;2024-02-28T07:22:45;4.60;99.90
10155;DHT22;5118;48.570;7.916;2024-02-28T07:25:14;4.80;99.90
10155;DHT22;5118;48.570;7.916;2024-02-28T07:27:44;4.70;99.90
10155;DHT22;5118;48.570;7.916;2024-02-28T07:30:13;4.70;99.90
10155;DHT22;5118;48.570;7.916;2024-02-28T07:32:41;4.70;99.90
10155;DHT22;5118;48.570;7.916;2024-02-28T07:35:12;4.70;99.90
10155;DHT22;5118;48.570;7.916;2024-02-28T07:37:41;4.70;99.90
10155;DHT22;5118;48.570;7.916;2024-02-28T07:40:10;4.80;99.90
10155;DHT22;5118;48.570;7.916;2024-02-28T07:42:38;4.90;99.90
10155;DHT22;5118;48.570;7.916;2024-02-28T07:45:14;5.10;99.90
10155;DHT22;5118;48.570;7.916;2024-02-28T07:47:55;5.20;99.90
10155;DHT22;5118;48.570;7.916;2024-02-28T07:50:24;5.40;99.90
10155;DHT22;5118;48.570;7.916;2024-02-28T07:52:56;5.50;99.90
10155;DHT22;5118;48.570;7.916;2024-02-28T07:55:24;5.70;99.90
10155;DHT22;5118;48.570;7.916;2024-02-28T07:57:53;5.90;99.90
10155;DHT22;5118;48.570;7.916;2024-02-28T08:00:22;6.00;99.90
10155;DHT22;5118;48.570;7.916;2024-02-28T08:02:52;6.20;99.90
10155;DHT22;5118;48.570;7.916;2024-02-28T08:05:25;6.30;99.90
10155;DHT22;5118;48.570;7.916;2024-02-28T08:07:53;6.50;99.90
10155;DHT22;5118;48.570;7.916;2024-02-28T08:10:23;6.70;99.90
10155;DHT22;5118;48.570;7.916;2024-02-28T08:12:52;6.90;99.90
10155;DHT22;5118;48.570;7.916;2024-02-28T08:15:24;7.10;99.90
10155;DHT22;5118;48.570;7.916;2024-02-28T08:17:57;7.30;99.90
10155;DHT22;5118;48.570;7.916;2024-02-28T08:20:33;7.40;99.90
10155;DHT22;5118;48.570;7.916;2024-02-28T08:23:03;7.60;99.90
10155;DHT22;5118;48.570;7.916;2024-02-28T08:25:31;7.70;99.90
10155;DHT22;5118;48.570;7.916;2024-02-28T08:28:00;7.80;99.90
10155;DHT22;5118;48.570;7.916;2024-02-28T08:30:29;7.90;99.90
10155;DHT22;5118;48.570;7.916;2024-02-28T08:32:58;7.90;99.90
10155;DHT22;5118;48.570;7.916;2024-02-28T08:35:26;7.80;99.90
10155;DHT22;5118;48.570;7.916;2024-02-28T08:37:56;7.70;99.90
10155;DHT22;5118;48.570;7.916;2024-02-28T08:40:25;7.60;99.90
10155;DHT22;5118;48.570;7.916;2024-02-28T08:42:53;7.50;99.90
10155;DHT22;5118;48.570;7.916;2024-02-28T08:45:22;7.40;99.90
10155;DHT22;5118;48.570;7.916;2024-02-28T08:47:51;7.30;99.90
10155;DHT22;5118;48.570;7.916;2024-02-28T08:50:20;7.20;99.90
10155;DHT22;5118;48.570;7.916;2024-02-28T08:52:48;7.20;99.90
10155;DHT22;5118;48.570;7.916;2024-02-28T08:55:18;7.20;99.90
10155;DHT22;5118;48.570;7.916;2024-02-28T08:57:49;7.20;99.90
10155;DHT22;5118;48.570;7.916;2024-02-28T09:00:19;7.20;99.90
10155;DHT22;5118;48.570;7.916;2024-02-28T09:02:52;7.30;99.90
10155;DHT22;5118;48.570;7.916;2024-02-28T09:05:23;7.40;99.90
10155;DHT22;5118;48.570;7.916;2024-02-28T09:07:54;7.40;99.90
10155;DHT22;5118;48.570;7.916;2024-02-28T09:10:32;7.50;99.90
10155;DHT22;5118;48.570;7.916;2024-02-28T09:13:01;7.60;99.90
10155;DHT22;5118;48.570;7.916;2024-02-28T09:19:14;7.70;99.90
10155;DHT22;5118;48.570;7.916;2024-02-28T09:21:47;7.70;99.90
10155;DHT22;5118;48.570;7.916;2024-02-28T09:24:43;7.80;99.90
10155;DHT22;5118;48.570;7.916;2024-02-28T09:27:34;7.80;99.90
10155;DHT22;5118;48.570;7.916;2024-02-28T09:30:06;7.80;99.90
10155;DHT22;5118;48.570;7.916;2024-02-28T09:32:34;7.80;99.90
10155;DHT22;5118;48.570;7.916;2024-02-28T09:35:03;7.80;99.90
10155;DHT22;5118;48.570;7.916;2024-02-28T09:37:33;7.80;99.90
10155;DHT22;5118;48.570;7.916;2024-02-28T09:40:01;7.80;99.90
10155;DHT22;5118;48.570;7.916;2024-02-28T09:42:34;7.90;99.90
10155;DHT22;5118;48.570;7.916;2024-02-28T09:45:04;7.90;99.90
10155;DHT22;5118;48.570;7.916;2024-02-28T09:47:34;7.90;99.90
10155;DHT22;5118;48.570;7.916;2024-02-28T09:50:04;8.00;99.90
10155;DHT22;5118;48.570;7.916;2024-02-28T09:52:33;8.00;99.90
10155;DHT22;5118;48.570;7.916;2024-02-28T09:55:02;8.10;99.90
10155;DHT22;5118;48.570;7.916;2024-02-28T09:57:33;8.20;99.90
10155;DHT22;5118;48.570;7.916;2024-02-28T10:00:04;8.30;99.90
10155;DHT22;5118;48.570;7.916;2024-02-28T10:02:33;8.40;99.90
10155;DHT22;5118;48.570;7.916;2024-02-28T10:05:01;8.50;99.90
10155;DHT22;5118;48.570;7.916;2024-02-28T10:07:32;8.60;99.90
10155;DHT22;5118;48.570;7.916;2024-02-28T10:10:00;8.70;99.90
10155;DHT22;5118;48.570;7.916;2024-02-28T10:12:31;8.90;99.90
10155;DHT22;5118;48.570;7.916;2024-02-28T10:15:02;9.00;99.90
10155;DHT22;5118;48.570;7.916;2024-02-28T10:17:31;9.10;99.90
10155;DHT22;5118;48.570;7.916;2024-02-28T10:19:59;9.20;99.90
10155;DHT22;5118;48.570;7.916;2024-02-28T10:22:35;9.30;99.90
10155;DHT22;5118;48.570;7.916;2024-02-28T10:25:04;9.40;99.90
10155;DHT22;5118;48.570;7.916;2024-02-28T10:27:43;9.40;99.90
10155;DHT22;5118;48.570;7.916;2024-02-28T10:30:13;9.50;99.90
10155;DHT22;5118;48.570;7.916;2024-02-28T10:32:48;9.70;99.90
10155;DHT22;5118;48.570;7.916;2024-02-28T10:35:18;9.80;99.90
10155;DHT22;5118;48.570;7.916;2024-02-28T10:37:47;9.90;99.90
10155;DHT22;5118;48.570;7.916;2024-02-28T10:40:18;10.00;99.90
10155;DHT22;5118;48.570;7.916;2024-02-28T10:42:48;10.10;99.90
10155;DHT22;5118;48.570;7.916;2024-02-28T10:45:18;10.30;99.90
10155;DHT22;5118;48.570;7.916;2024-02-28T10:48:08;10.70;99.90
10155;DHT22;5118;48.570;7.916;2024-02-28T10:50:38;11.40;99.90
10155;DHT22;5118;48.570;7.916;2024-02-28T10:53:11;12.10;99.90
10155;DHT22;5118;48.570;7.916;2024-02-28T10:55:42;12.70;99.90
10155;DHT22;5118;48.570;7.916;2024-02-28T10:58:12;13.10;99.90
10155;DHT22;5118;48.570;7.916;2024-02-28T11:00:43;13.20;99.90
10155;DHT22;5118;48.570;7.916;2024-02-28T11:03:16;13.20;99.90
10155;DHT22;5118;48.570;7.916;2024-02-28T11:05:45;13.10;99.90
10155;DHT22;5118;48.570;7.916;2024-02-28T11:08:21;13.10;99.90
10155;DHT22;5118;48.570;7.916;2024-02-28T11:10:55;13.40;99.90
10155;DHT22;5118;48.570;7.916;2024-02-28T11:13:24;14.00;99.90
10155;DHT22;5118;48.570;7.916;2024-02-28T11:15:54;14.60;99.90
10155;DHT22;5118;48.570;7.916;2024-02-28T11:18:23;15.40;99.90
10155;DHT22;5118;48.570;7.916;2024-02-28T11:20:52;16.20;99.90
10155;DHT22;5118;48.570;7.916;2024-02-28T11:23:21;17.00;99.90
10155;DHT22;5118;48.570;7.916;2024-02-28T11:25:49;17.50;99.90
10155;DHT22;5118;48.570;7.916;2024-02-28T11:28:18;17.50;99.90
10155;DHT22;5118;48.570;7.916;2024-02-28T11:30:51;17.20;99.90
10155;DHT22;5118;48.570;7.916;2024-02-28T11:33:21;16.70;99.90
10155;DHT22;5118;48.570;7.916;2024-02-28T11:35:54;16.40;99.90
10155;DHT22;5118;48.570;7.916;2024-02-28T11:38:24;16.50;99.90
10155;DHT22;5118;48.570;7.916;2024-02-28T11:40:53;16.70;99.90
10155;DHT22;5118;48.570;7.916;2024-02-28T11:43:22;16.90;99.90
10155;DHT22;5118;48.570;7.916;2024-02-28T11:45:53;16.90;99.90
10155;DHT22;5118;48.570;7.916;2024-02-28T11:48:25;17.00;99.90
10155;DHT22;5118;48.570;7.916;2024-02-28T11:50:53;17.60;99.90
10155;DHT22;5118;48.570;7.916;2024-02-28T11:53:21;18.60;99.90
10155;DHT22;5118;48.570;7.916;2024-02-28T11:55:50;19.40;99.90
10155;DHT22;5118;48.570;7.916;2024-02-28T11:58:18;19.60;99.60
10155;DHT22;5118;48.570;7.916;2024-02-28T12:00:48;19.40;98.10
10155;DHT22;5118;48.570;7.916;2024-02-28T12:03:20;19.10;97.80
10155;DHT22;5118;48.570;7.916;2024-02-28T12:05:51;18.70;96.70
10155;DHT22;5118;48.570;7.916;2024-02-28T12:08:20;18.30;96.50
10155;DHT22;5118;48.570;7.916;2024-02-28T12:10:48;17.90;95.90
10155;DHT22;5118;48.570;7.916;2024-02-28T12:13:17;17.40;95.00
10155;DHT22;5118;48.570;7.916;2024-02-28T12:15:46;16.80;95.20
10155;DHT22;5118;48.570;7.916;2024-02-28T12:18:15;16.50;96.10
10155;DHT22;5118;48.570;7.916;2024-02-28T12:20:44;16.70;98.70
10155;DHT22;5118;48.570;7.916;2024-02-28T12:23:15;17.50;99.80
10155;DHT22;5118;48.570;7.916;2024-02-28T12:25:45;18.60;99.10
10155;DHT22;5118;48.570;7.916;2024-02-28T12:28:13;19.30;96.80
10155;DHT22;5118;48.570;7.916;2024-02-28T12:30:43;19.50;94.60
10155;DHT22;5118;48.570;7.916;2024-02-28T12:33:12;19.30;92.70
10155;DHT22;5118;48.570;7.916;2024-02-28T12:35:40;19.00;91.80
10155;DHT22;5118;48.570;7.916;2024-02-28T12:38:09;18.90;90.80
10155;DHT22;5118;48.570;7.916;2024-02-28T12:40:39;18.60;90.20
10155;DHT22;5118;48.570;7.916;2024-02-28T12:43:09;18.70;89.40
10155;DHT22;5118;48.570;7.916;2024-02-28T12:45:37;19.00;90.40
10155;DHT22;5118;48.570;7.916;2024-02-28T12:48:06;19.60;91.60
10155;DHT22;5118;48.570;7.916;2024-02-28T12:50:35;20.50;91.00
10155;DHT22;5118;48.570;7.916;2024-02-28T12:53:03;21.60;90.40
10155;DHT22;5118;48.570;7.916;2024-02-28T12:55:32;22.50;85.20
10155;DHT22;5118;48.570;7.916;2024-02-28T12:58:03;23.20;76.10
10155;DHT22;5118;48.570;7.916;2024-02-28T13:00:32;23.50;63.90
10155;DHT22;5118;48.570;7.916;2024-02-28T13:03:01;23.40;58.60
10155;DHT22;5118;48.570;7.916;2024-02-28T13:05:31;23.20;55.60
10155;DHT22;5118;48.570;7.916;2024-02-28T13:07:59;23.00;50.80
10155;DHT22;5118;48.570;7.916;2024-02-28T13:10:28;22.40;47.20
10155;DHT22;5118;48.570;7.916;2024-02-28T13:12:57;21.80;46.40
10155;DHT22;5118;48.570;7.916;2024-02-28T13:15:27;21.40;49.00
10155;DHT22;5118;48.570;7.916;2024-02-28T13:17:55;21.60;45.60
10155;DHT22;5118;48.570;7.916;2024-02-28T13:20:24;21.50;45.60
10155;DHT22;5118;48.570;7.916;2024-02-28T13:22:52;21.50;44.90
10155;DHT22;5118;48.570;7.916;2024-02-28T13:25:21;21.70;45.60
10155;DHT22;5118;48.570;7.916;2024-02-28T13:27:49;22.00;45.70
10155;DHT22;5118;48.570;7.916;2024-02-28T13:30:18;22.60;46.60
10155;DHT22;5118;48.570;7.916;2024-02-28T13:32:48;23.20;44.00
10155;DHT22;5118;48.570;7.916;2024-02-28T13:35:16;23.80;40.00
10155;DHT22;5118;48.570;7.916;2024-02-28T13:37:45;24.10;33.90
10155;DHT22;5118;48.570;7.916;2024-02-28T13:40:13;24.10;31.60
10155;DHT22;5118;48.570;7.916;2024-02-28T13:42:42;23.90;29.00
10155;DHT22;5118;48.570;7.916;2024-02-28T13:45:12;23.80;28.20
10155;DHT22;5118;48.570;7.916;2024-02-28T13:47:40;23.80;27.20
10155;DHT22;5118;48.570;7.916;2024-02-28T13:50:10;23.80;26.70
10155;DHT22;5118;48.570;7.916;2024-02-28T13:52:38;23.80;24.40
10155;DHT22;5118;48.570;7.916;2024-02-28T13:55:07;23.90;26.90
10155;DHT22;5118;48.570;7.916;2024-02-28T13:57:36;24.00;24.00
10155;DHT22;5118;48.570;7.916;2024-02-28T14:00:06;23.90;21.70
10155;DHT22;5118;48.570;7.916;2024-02-28T14:02:38;23.80;21.20
10155;DHT22;5118;48.570;7.916;2024-02-28T14:05:07;23.70;22.00
10155;DHT22;5118;48.570;7.916;2024-02-28T14:07:37;23.80;20.80
10155;DHT22;5118;48.570;7.916;2024-02-28T14:10:07;23.70;20.30
10155;DHT22;5118;48.570;7.916;2024-02-28T14:12:38;23.80;21.20
10155;DHT22;5118;48.570;7.916;2024-02-28T14:15:07;23.80;18.90
10155;DHT22;5118;48.570;7.916;2024-02-28T14:17:38;23.90;18.20
10155;DHT22;5118;48.570;7.916;2024-02-28T14:20:07;24.10;18.50
10155;DHT22;5118;48.570;7.916;2024-02-28T14:22:37;24.40;18.00
10155;DHT22;5118;48.570;7.916;2024-02-28T14:25:11;24.60;15.50
10155;DHT22;5118;48.570;7.916;2024-02-28T14:27:42;24.90;16.30
10155;DHT22;5118;48.570;7.916;2024-02-28T14:30:13;25.30;15.40
10155;DHT22;5118;48.570;7.916;2024-02-28T14:32:43;25.80;14.40
10155;DHT22;5118;48.570;7.916;2024-02-28T14:35:11;26.30;13.70
10155;DHT22;5118;48.570;7.916;2024-02-28T14:37:41;26.80;12.30
10155;DHT22;5118;48.570;7.916;2024-02-28T14:40:11;27.10;9.30
10155;DHT22;5118;48.570;7.916;2024-02-28T14:42:41;27.00;8.00
10155;DHT22;5118;48.570;7.916;2024-02-28T14:45:11;26.90;6.60
10155;DHT22;5118;48.570;7.916;2024-02-28T14:47:41;26.80;6.40
10155;DHT22;5118;48.570;7.916;2024-02-28T14:50:11;26.50;5.00
10155;DHT22;5118;48.570;7.916;2024-02-28T14:52:41;25.90;4.70
10155;DHT22;5118;48.570;7.916;2024-02-28T14:55:10;25.50;4.00
10155;DHT22;5118;48.570;7.916;2024-02-28T14:57:39;25.10;3.70
10155;DHT22;5118;48.570;7.916;2024-02-28T15:00:09;24.60;3.70
10155;DHT22;5118;48.570;7.916;2024-02-28T15:02:42;24.20;3.60
10155;DHT22;5118;48.570;7.916;2024-02-28T15:05:11;23.70;4.30
10155;DHT22;5118;48.570;7.916;2024-02-28T15:07:41;23.40;5.50
10155;DHT22;5118;48.570;7.916;2024-02-28T15:10:09;23.20;5.60
10155;DHT22;5118;48.570;7.916;2024-02-28T15:12:38;23.00;5.40
10155;DHT22;5118;48.570;7.916;2024-02-28T15:15:08;22.80;5.70
10155;DHT22;5118;48.570;7.916;2024-02-28T15:17:38;22.40;5.70
10155;DHT22;5118;48.570;7.916;2024-02-28T15:20:07;22.00;6.10
10155;DHT22;5118;48.570;7.916;2024-02-28T15:22:36;21.60;6.40
10155;DHT22;5118;48.570;7.916;2024-02-28T15:25:07;21.30;6.70
10155;DHT22;5118;48.570;7.916;2024-02-28T15:27:35;21.10;6.80
10155;DHT22;5118;48.570;7.916;2024-02-28T15:30:05;20.90;7.00
10155;DHT22;5118;48.570;7.916;2024-02-28T15:32:34;20.80;6.70
10155;DHT22;5118;48.570;7.916;2024-02-28T15:35:07;20.80;6.70
10155;DHT22;5118;48.570;7.916;2024-02-28T15:37:36;20.60;6.50
10155;DHT22;5118;48.570;7.916;2024-02-28T15:40:06;20.30;6.80
10155;DHT22;5118;48.570;7.916;2024-02-28T15:42:35;20.00;7.20
10155;DHT22;5118;48.570;7.916;2024-02-28T15:45:04;19.90;8.10
10155;DHT22;5118;48.570;7.916;2024-02-28T15:47:33;19.90;8.70
10155;DHT22;5118;48.570;7.916;2024-02-28T15:50:03;19.90;8.80
10155;DHT22;5118;48.570;7.916;2024-02-28T15:52:32;19.80;8.60
10155;DHT22;5118;48.570;7.916;2024-02-28T15:55:00;19.70;8.50
10155;DHT22;5118;48.570;7.916;2024-02-28T15:57:30;19.40;8.10
10155;DHT22;5118;48.570;7.916;2024-02-28T15:59:58;18.90;7.90
10155;DHT22;5118;48.570;7.916;2024-02-28T16:02:27;18.20;8.30
10155;DHT22;5118;48.570;7.916;2024-02-28T16:04:55;17.50;8.80
10155;DHT22;5118;48.570;7.916;2024-02-28T16:07:24;16.90;9.70
10155;DHT22;5118;48.570;7.916;2024-02-28T16:09:53;16.40;10.30
10155;DHT22;5118;48.570;7.916;2024-02-28T16:12:21;16.00;11.50
10155;DHT22;5118;48.570;7.916;2024-02-28T16:14:51;15.50;11.70